< < Back
Terminal Aerodrome Forecast


Current Version              Previous Versions:   1  2  3  4  5  6  7  8  9  

Terminal Aerodrome Forecast

669
FTUS42 KFFC 241700
TAFMCN
TAF
KMCN 241740Z 2418/2518 14005KT P6SM SCT060
     FM250200 21004KT P6SM BKN045
     FM251200 22005KT P6SM BKN030
     FM251500 25010G18KT P6SM SCT040=



Latest METAR

618
SAUS80 KWBC 250200 RRA
MTRMCN
METAR KMCN 250153Z AUTO 00000KT 10SM CLR 17/13 A2993 RMK AO2 SLP131
T01720133 TSNO


USA.gov is the U.S. government's official web portal to all federal, state and local government web resources and services.